Fecha, hora, temperatura, viento dirección y velocidad, humedad y presión.

  • 16-01-2019 17:00:00 | 11.60°C | Noroeste |13.00 km/h | 63.00% | 975.50 hPa
  • 16-01-2019 16:00:00 | 12.30°C | Noroeste |13.00 km/h | 60.00% | 975.20 hPa
  • 16-01-2019 15:00:00 | 11.80°C | Oeste |11.00 km/h | 64.00% | 975.20 hPa
  • 16-01-2019 14:00:00 | 11.40°C | Oeste |6.00 km/h | 65.00% | 975.70 hPa
  • 16-01-2019 13:00:00 | 11.40°C | Sudeste |5.00 km/h | 64.00% | 976.20 hPa
  • 16-01-2019 12:00:00 | 8.30°C | Sur |6.00 km/h | 75.00% | 976.70 hPa
  • 16-01-2019 11:00:00 | 6.20°C | Sur |6.00 km/h | 81.00% | 977.00 hPa
  • 16-01-2019 10:00:00 | 4.00°C | Sur |8.00 km/h | 85.00% | 976.80 hPa
  • 16-01-2019 09:00:00 | 3.30°C | Sur |9.00 km/h | 85.00% | 976.50 hPa
  • 16-01-2019 08:00:00 | 3.70°C | Sur |10.00 km/h | 78.00% | 976.20 hPa
  • 16-01-2019 07:00:00 | 3.40°C | Sur |8.00 km/h | 80.00% | 976.10 hPa
  • 16-01-2019 06:00:00 | 3.20°C | Sur |10.00 km/h | 79.00% | 976.20 hPa
  • 16-01-2019 05:00:00 | 3.60°C | Sur |8.00 km/h | 80.00% | 976.50 hPa
  • 16-01-2019 04:00:00 | 4.20°C | Sur |8.00 km/h | 78.00% | 976.50 hPa
  • 16-01-2019 03:00:00 | 4.50°C | Sur |10.00 km/h | 76.00% | 976.70 hPa
  • 16-01-2019 02:00:00 | 4.40°C | Sur |9.00 km/h | 79.00% | 977.00 hPa
  • 16-01-2019 01:00:00 | 4.60°C | Sur |11.00 km/h | 82.00% | 977.60 hPa
  • 16-01-2019 00:00:00 | 5.00°C | Sur |10.00 km/h | 83.00% | 978.00 hPa
  • 15-01-2019 23:00:00 | 5.40°C | Sur |7.00 km/h | 88.00% | 978.10 hPa
  • 15-01-2019 22:00:00 | 5.80°C | Sur |9.00 km/h | 86.00% | 978.20 hPa
  • 15-01-2019 21:00:00 | 6.50°C | Sur |7.00 km/h | 87.00% | 978.30 hPa
  • 15-01-2019 20:00:00 | 7.00°C | Sur |4.00 km/h | 90.00% | 978.40 hPa
  • 15-01-2019 19:00:00 | 8.20°C | Sudeste |4.00 km/h | 82.00% | 978.60 hPa
  • 15-01-2019 18:00:00 | 9.50°C | Noroeste |2.00 km/h | 75.00% | 978.40 hPa
    • diseño web asturias Información sobre el estado de las mareas, altura de la marejada, temperatura del agua y otros datos de Gijón en Asturias.

      Surf Gijón